Hawk Run, Pennsylvania
Current Conditions -  °F | °C
As of 3:54 AM on Sunday 23 Nov 2014 (Local Time) from KFIG Reporting Station
Light Rain Light Rain  
Wind Chill: 35°   Ceiling: 4300
Heat Index: 35°   Visibility: 8mi
Dew Point: 33°   Wind: 3mph
Humidity: 92%   Direction: NA
Pressure: 30.1"   Gusts: NA
Location:  40.94°N, 78.22°W
Report Text: KFIG 230854Z AUTO VRB03KT 8SM -RA BKN043 BKN055 OVC070 02/01 A3010 RMK AO2 RAB49 SLP207 P0000 60000 T00170006 51001
Loading
Personal Weather Stations






























Interactive Weather Map New forecast layout! Learn more

10-Day Weather Forecast

Advertisements
Track Severe Weather on mobile